Time;durP1;ratioP1;P1;durP2;ratioP2;P2;SDS_P1;SDS_P2;PMS_P1;PMS_P2;Temp;Humidity;BMP_temperature;BMP_pressure;BME280_temperature;BME280_humidity;BME280_pressure;Samples;Min_cycle;Max_cycle;Signal;HPM_P1;HPM_P2
2021/07/11 16:01:44;;;;;;;14.65;7.30;;;;;;;29.80;42.14;98874.57;125778;1093;103043;-71
2021/07/11 16:04:13;;;;;;;14.93;7.83;;;;;;;29.76;41.86;98881.61;125716;1093;102910;-71
2021/07/11 16:06:41;;;;;;;18.13;8.50;;;;;;;29.73;41.57;98882.13;125688;1093;103367;-72
2021/07/11 16:09:10;;;;;;;15.97;8.43;;;;;;;29.68;41.80;98880.09;125723;1092;102911;-73
2021/07/11 16:11:40;;;;;;;14.83;8.13;;;;;;;29.62;41.38;98874.75;125660;1093;103028;-74
2021/07/11 16:14:08;;;;;;;20.57;11.57;;;;;;;29.54;41.24;98871.31;125657;1093;103030;-72
2021/07/11 16:16:39;;;;;;;16.73;8.27;;;;;;;29.45;41.64;98860.97;125697;1093;103006;-73
2021/07/11 16:19:08;;;;;;;18.07;8.40;;;;;;;29.39;40.95;98855.38;125706;1093;102918;-72
2021/07/11 16:21:37;;;;;;;14.60;7.87;;;;;;;29.26;41.03;98848.22;125723;1093;103037;-72
2021/07/11 16:24:06;;;;;;;15.53;7.43;;;;;;;29.18;41.40;98853.21;125716;1093;102994;-72
2021/07/11 16:26:35;;;;;;;16.90;7.83;;;;;;;29.15;40.81;98845.47;125686;1093;103016;-71
2021/07/11 16:29:03;;;;;;;21.80;10.80;;;;;;;29.11;41.02;98843.24;125749;1093;102930;-71
2021/07/11 16:31:31;;;;;;;17.27;8.70;;;;;;;29.07;41.27;98860.36;125679;1093;103058;-72
2021/07/11 16:34:00;;;;;;;16.13;8.00;;;;;;;28.98;41.29;98859.89;125719;1093;103367;-72
2021/07/11 16:36:29;;;;;;;16.60;7.97;;;;;;;28.92;40.74;98858.95;125702;1093;103037;-68
2021/07/11 16:38:59;;;;;;;18.37;8.67;;;;;;;28.87;40.82;98863.45;125641;1093;103037;-69
2021/07/11 16:41:29;;;;;;;17.33;7.53;;;;;;;28.82;41.32;98866.91;125706;1093;102933;-68
2021/07/11 16:43:58;;;;;;;15.47;8.07;;;;;;;28.79;41.40;98876.41;125696;1093;103002;-68
2021/07/11 16:46:26;;;;;;;23.83;11.53;;;;;;;28.78;41.19;98882.13;125707;1093;102939;-70
2021/07/11 16:48:55;;;;;;;21.67;10.27;;;;;;;28.77;41.49;98873.08;125695;1093;102912;-70
2021/07/11 16:51:24;;;;;;;138.60;102.90;;;;;;;28.78;41.11;98884.88;125606;1092;103075;-69
2021/07/11 16:53:52;;;;;;;58.23;36.97;;;;;;;28.75;41.72;98885.31;125599;1092;102991;-71
2021/07/11 16:56:21;;;;;;;31.33;12.57;;;;;;;28.72;41.16;98889.36;125677;1093;102913;-68
2021/07/11 16:58:50;;;;;;;22.77;11.27;;;;;;;28.70;41.47;98891.50;125706;1093;103009;-68
2021/07/11 17:01:19;;;;;;;16.03;8.60;;;;;;;28.64;41.47;98897.91;125664;1093;103009;-71
2021/07/11 17:03:48;;;;;;;27.03;11.47;;;;;;;28.61;41.77;98901.11;125697;1093;103010;-76
2021/07/11 17:06:17;;;;;;;41.47;19.23;;;;;;;28.57;41.40;98902.64;125635;1093;102997;-68
2021/07/11 17:08:45;;;;;;;74.23;37.97;;;;;;;28.56;41.38;98912.73;125634;1092;102908;-68
2021/07/11 17:11:14;;;;;;;56.23;31.50;;;;;;;28.55;42.03;98919.27;125688;1093;102930;-68
2021/07/11 17:13:42;;;;;;;32.23;18.43;;;;;;;28.54;41.72;98923.08;125635;1092;102987;-70
2021/07/11 17:16:11;;;;;;;57.73;31.80;;;;;;;28.53;41.86;98924.99;125653;1092;102918;-68
2021/07/11 17:18:40;;;;;;;31.17;20.77;;;;;;;28.51;42.06;98927.13;125688;1093;103016;-69
2021/07/11 17:21:09;;;;;;;29.70;16.43;;;;;;;28.48;42.50;98933.06;125704;1091;103013;-68
2021/07/11 17:23:37;;;;;;;27.70;19.30;;;;;;;28.44;42.61;98929.12;125736;1093;103083;-70
2021/07/11 17:26:07;;;;;;;31.60;23.07;;;;;;;28.38;42.35;98939.09;125713;1093;103004;-70
2021/07/11 17:28:35;;;;;;;46.67;35.43;;;;;;;28.28;42.73;98951.66;125639;1092;103164;-69
2021/07/11 17:31:04;;;;;;;50.20;37.47;;;;;;;28.16;42.85;98957.90;125673;1093;102932;-69
2021/07/11 17:33:35;;;;;;;35.40;24.83;;;;;;;27.98;42.84;98969.66;125650;1093;102977;-70
2021/07/11 17:36:05;;;;;;;49.53;34.77;;;;;;;27.77;42.98;98987.34;125652;1093;102938;-70
2021/07/11 17:38:34;;;;;;;28.40;17.53;;;;;;;27.42;43.00;98996.05;125681;1092;102927;-72
2021/07/11 17:41:03;;;;;;;27.83;18.07;;;;;;;26.99;43.29;99008.56;125701;1092;103208;-70
2021/07/11 17:43:32;;;;;;;55.40;43.33;;;;;;;26.68;43.59;98994.69;125695;1092;103527;-72
2021/07/11 17:46:01;;;;;;;41.30;29.65;;;;;;;26.58;43.70;98989.68;125699;1093;102932;-71
2021/07/11 17:48:29;;;;;;;53.17;38.40;;;;;;;26.44;43.64;99007.19;125652;1093;103123;-68
2021/07/11 17:50:58;;;;;;;54.87;42.13;;;;;;;26.24;44.42;99010.82;125610;1093;103052;-69
2021/07/11 17:53:26;;;;;;;47.33;32.60;;;;;;;26.04;44.31;99021.76;125683;1093;102908;-71
2021/07/11 17:55:55;;;;;;;28.93;16.17;;;;;;;25.76;44.58;99024.75;125606;1093;102931;-69
2021/07/11 17:58:23;;;;;;;47.30;33.73;;;;;;;25.44;44.49;99019.13;125678;1093;102942;-68
2021/07/11 18:00:51;;;;;;;30.63;18.17;;;;;;;25.15;44.69;99013.03;125664;1092;102909;-70
2021/07/11 18:03:20;;;;;;;29.17;15.20;;;;;;;24.88;45.27;99016.55;125679;1093;103058;-68
2021/07/11 18:05:50;;;;;;;94.33;66.47;;;;;;;24.71;45.27;99009.78;125641;1092;103084;-68
2021/07/11 18:08:18;;;;;;;32.73;20.27;;;;;;;24.62;45.07;98999.11;125742;1093;103065;-68
2021/07/11 18:10:47;;;;;;;22.33;11.97;;;;;;;24.49;45.10;98999.89;125594;1093;103053;-70
2021/07/11 18:13:15;;;;;;;71.33;51.37;;;;;;;24.36;45.68;98989.81;125693;1093;102931;-69
2021/07/11 18:15:44;;;;;;;86.00;66.65;;;;;;;24.29;45.49;98994.38;125698;1093;102943;-68
2021/07/11 18:18:12;;;;;;;58.23;38.17;;;;;;;24.23;45.70;99004.20;125638;1092;103284;-69
2021/07/11 18:20:41;;;;;;;122.33;94.13;;;;;;;24.17;46.15;99012.33;125674;1093;103004;-69
2021/07/11 18:23:09;;;;;;;29.37;16.33;;;;;;;24.11;46.06;99016.67;125653;1093;103022;-70
2021/07/11 18:25:38;;;;;;;16.10;6.27;;;;;;;24.04;46.53;99013.92;125675;1093;102968;-70
2021/07/11 18:28:07;;;;;;;90.03;65.17;;;;;;;23.90;46.84;99018.42;125715;1092;102948;-68
2021/07/11 18:30:38;;;;;;;37.70;24.40;;;;;;;23.79;46.76;99027.97;125645;1093;103057;-72
2021/07/11 18:33:06;;;;;;;25.57;14.53;;;;;;;23.68;46.89;99022.23;125690;1093;103081;-74
2021/07/11 18:35:35;;;;;;;73.17;59.33;;;;;;;23.62;46.49;99035.58;125598;1093;103002;-69
2021/07/11 18:38:06;;;;;;;250.40;223.00;;;;;;;23.51;46.63;99024.41;125737;1092;103020;-69
2021/07/11 18:40:36;;;;;;;288.00;253.40;;;;;;;23.41;47.14;99033.75;125673;1092;103117;-69
2021/07/11 18:43:04;;;;;;;54.57;39.93;;;;;;;23.42;47.58;99026.44;125642;1093;102970;-67
2021/07/11 18:45:33;;;;;;;812.27;636.80;;;;;;;23.42;47.50;99021.00;125691;1093;102910;-65
2021/07/11 18:48:01;;;;;;;107.93;92.20;;;;;;;23.40;47.31;99017.64;125641;1093;103006;-67
2021/07/11 18:50:30;;;;;;;67.15;49.60;;;;;;;23.38;47.75;99015.14;125683;1093;102991;-70
2021/07/11 18:52:58;;;;;;;13.07;6.00;;;;;;;23.36;47.74;99013.64;125693;1092;103009;-70
2021/07/11 18:55:26;;;;;;;55.53;40.77;;;;;;;23.31;47.89;99014.25;125684;1093;103087;-76
2021/07/11 18:57:55;;;;;;;11.80;5.30;;;;;;;23.29;48.32;99010.89;125684;1093;103028;-77
2021/07/11 19:00:24;;;;;;;20.67;10.07;;;;;;;23.27;48.32;99013.78;125655;1093;103002;-78
2021/07/11 19:02:53;;;;;;;31.13;16.67;;;;;;;23.24;48.72;99006.03;125742;1093;103065;-78
2021/07/11 19:05:21;;;;;;;39.47;26.07;;;;;;;23.21;48.51;99009.13;125621;1092;103074;-70
2021/07/11 19:07:50;;;;;;;34.20;21.73;;;;;;;23.19;48.29;99009.30;125678;1093;103066;-82
2021/07/11 19:10:19;;;;;;;17.17;8.23;;;;;;;23.17;48.88;99007.84;125728;1093;102911;-72
2021/07/11 19:12:48;;;;;;;77.80;52.50;;;;;;;23.14;48.76;98995.48;126099;1093;103006;-72
2021/07/11 19:15:16;;;;;;;47.07;29.23;;;;;;;23.07;48.75;98985.63;125691;1093;102910;-75
2021/07/11 19:17:46;;;;;;;80.50;57.63;;;;;;;23.01;49.04;98973.69;125635;1093;102977;-71
2021/07/11 19:20:18;;;;;;;56.77;34.73;;;;;;;22.99;48.87;98973.05;125666;1093;103135;-75
2021/07/11 19:22:47;;;;;;;40.53;23.40;;;;;;;22.97;49.50;98970.51;125730;1093;103103;-75
2021/07/11 19:25:17;;;;;;;11.70;5.77;;;;;;;22.97;49.16;98972.39;125680;1093;103408;-72
2021/07/11 19:27:46;;;;;;;12.63;5.50;;;;;;;22.98;49.28;98963.23;125729;1093;102913;-68
2021/07/11 19:30:15;;;;;;;16.65;7.65;;;;;;;22.97;49.47;98954.23;125718;1093;102996;-71
2021/07/11 19:32:44;;;;;;;15.10;7.23;;;;;;;22.98;49.71;98955.91;125667;1093;102991;-72
2021/07/11 19:35:16;;;;;;;21.33;11.87;;;;;;;22.97;49.42;98958.84;125657;1093;103026;-75
2021/07/11 19:37:51;;;;;;;17.75;7.68;;;;;;;22.94;49.64;98954.63;125689;1093;102988;-69
2021/07/11 19:40:23;;;;;;;14.37;6.33;;;;;;;22.92;50.04;98953.16;125711;1093;103002;-70
2021/07/11 19:42:52;;;;;;;14.27;6.47;;;;;;;22.88;49.87;98945.41;125699;1093;102978;-68
2021/07/11 19:45:21;;;;;;;42.70;27.03;;;;;;;22.84;50.21;98954.96;125609;1093;103026;-71
2021/07/11 19:47:50;;;;;;;12.93;6.50;;;;;;;22.80;50.09;98950.95;125704;1093;102989;-72
2021/07/11 19:50:20;;;;;;;14.03;6.87;;;;;;;22.78;50.45;98947.59;125612;1093;103027;-71
2021/07/11 19:52:50;;;;;;;15.83;6.80;;;;;;;22.75;50.07;98953.41;125710;1092;102994;-74
2021/07/11 19:55:19;;;;;;;15.53;9.27;;;;;;;22.72;50.66;98956.50;125665;1093;102990;-69
2021/07/11 19:57:48;;;;;;;43.37;28.50;;;;;;;22.69;50.63;98946.90;125716;1093;103073;-70
2021/07/11 20:00:21;;;;;;;22.80;10.50;;;;;;;22.67;50.53;98940.83;125701;1093;102971;-70
2021/07/11 20:02:50;;;;;;;16.53;6.87;;;;;;;22.65;50.55;98944.75;125672;1092;102985;-72
2021/07/11 20:05:19;;;;;;;15.50;7.17;;;;;;;22.63;50.83;98938.68;125684;1092;102932;-72
2021/07/11 20:07:49;;;;;;;16.07;7.00;;;;;;;22.60;51.02;98938.06;125956;1093;103006;-70
2021/07/11 20:10:20;;;;;;;16.73;6.90;;;;;;;22.58;50.91;98931.14;125668;1092;103044;-68
2021/07/11 20:12:48;;;;;;;13.55;6.75;;;;;;;22.55;50.77;98937.80;125766;1092;102909;-70
2021/07/11 20:15:18;;;;;;;12.60;6.50;;;;;;;22.53;50.99;98933.59;125668;1093;103018;-70
2021/07/11 20:17:54;;;;;;;18.40;9.17;;;;;;;22.50;51.03;98937.53;125725;1092;102933;-71
2021/07/11 20:20:23;;;;;;;18.37;7.90;;;;;;;22.48;51.38;98936.89;125709;1093;102905;-70
2021/07/11 20:22:51;;;;;;;14.83;7.63;;;;;;;22.45;51.50;98929.96;125644;1093;102994;-68
2021/07/11 20:25:20;;;;;;;16.43;8.13;;;;;;;22.40;51.43;98926.13;125706;1093;102997;-69
2021/07/11 20:27:49;;;;;;;16.77;7.80;;;;;;;22.37;51.71;98918.38;125692;1093;102939;-69
2021/07/11 20:30:20;;;;;;;20.77;10.87;;;;;;;22.35;52.18;98920.45;125699;1092;103411;-69
2021/07/11 20:32:49;;;;;;;21.47;9.83;;;;;;;22.30;51.91;98929.98;125648;1091;104445;-67
2021/07/11 20:35:18;;;;;;;23.90;12.57;;;;;;;22.28;51.79;98936.64;125666;1093;102935;-68
2021/07/11 20:37:47;;;;;;;21.90;11.90;;;;;;;22.21;52.05;98925.70;125649;1092;103001;-71
2021/07/11 20:40:17;;;;;;;16.40;8.23;;;;;;;22.17;52.06;98929.85;125737;1093;102942;-70
2021/07/11 20:42:46;;;;;;;15.83;7.60;;;;;;;22.14;52.33;98928.34;125684;1093;102928;-70
2021/07/11 20:45:15;;;;;;;16.43;8.03;;;;;;;22.09;52.45;98932.66;125736;1093;103001;-72
2021/07/11 20:47:45;;;;;;;25.10;11.87;;;;;;;22.03;52.30;98936.13;125694;1093;103057;-71
2021/07/11 20:50:17;;;;;;;22.80;11.47;;;;;;;21.96;52.60;98947.71;125699;1093;102916;-70
2021/07/11 20:52:46;;;;;;;28.10;16.90;;;;;;;21.90;52.54;98955.76;125568;1093;102998;-68
2021/07/11 20:55:18;;;;;;;79.90;55.90;;;;;;;21.85;52.67;98953.59;125703;1092;102911;-69
2021/07/11 20:57:48;;;;;;;36.23;12.67;;;;;;;21.80;53.17;98954.17;125689;1093;103024;-71
2021/07/11 21:00:19;;;;;;;17.90;9.43;;;;;;;21.76;53.00;98960.98;125696;1093;102940;-71
2021/07/11 21:02:47;;;;;;;21.77;11.13;;;;;;;21.73;52.94;98955.94;125625;1093;102974;-69
2021/07/11 21:05:16;;;;;;;40.27;23.47;;;;;;;21.71;53.04;98964.27;125654;1093;102943;-71
2021/07/11 21:07:45;;;;;;;16.87;8.37;;;;;;;21.69;53.07;98965.45;125644;1092;103525;-70
2021/07/11 21:10:14;;;;;;;15.50;7.90;;;;;;;21.68;53.33;98964.63;125704;1092;103010;-71
2021/07/11 21:12:44;;;;;;;16.13;8.17;;;;;;;21.64;53.51;98968.73;125708;1092;102936;-70
2021/07/11 21:15:13;;;;;;;26.70;13.23;;;;;;;21.60;53.59;98961.16;125727;1092;103019;-75
2021/07/11 21:17:41;;;;;;;14.30;7.30;;;;;;;21.56;53.78;98960.67;125722;1093;103096;-71
2021/07/11 21:20:11;;;;;;;18.63;9.83;;;;;;;21.51;53.86;98960.38;125725;1092;103085;-71
2021/07/11 21:22:43;;;;;;;31.10;20.03;;;;;;;21.49;53.83;98970.55;125682;1093;102997;-74
2021/07/11 21:25:14;;;;;;;63.77;47.23;;;;;;;21.45;53.79;98975.50;125615;1093;102995;-69
2021/07/11 21:27:44;;;;;;;28.70;15.27;;;;;;;21.41;54.21;98974.19;125744;1092;102910;-69
2021/07/11 21:30:13;;;;;;;21.53;12.13;;;;;;;21.38;54.04;98975.41;125719;1092;102941;-70
2021/07/11 21:32:41;;;;;;;72.63;52.63;;;;;;;21.37;54.08;98970.16;125714;1093;103065;-71
2021/07/11 21:35:10;;;;;;;67.27;42.47;;;;;;;21.35;53.78;98973.07;125724;1093;102988;-71
2021/07/11 21:37:40;;;;;;;32.75;19.30;;;;;;;21.33;54.32;98972.41;125710;1092;102944;-70
2021/07/11 21:40:09;;;;;;;23.87;13.70;;;;;;;21.33;54.54;98967.00;125712;1092;102913;-71
2021/07/11 21:42:38;;;;;;;14.77;7.83;;;;;;;21.32;54.46;98962.61;125795;1093;103194;-70
2021/07/11 21:45:08;;;;;;;17.07;8.40;;;;;;;21.30;54.79;98959.25;125665;1092;103185;-71
2021/07/11 21:47:37;;;;;;;22.33;11.07;;;;;;;21.28;54.62;98955.89;125685;1093;103098;-70
2021/07/11 21:50:07;;;;;;;26.23;15.43;;;;;;;21.26;54.85;98957.94;125682;1093;102909;-72
2021/07/11 21:52:36;;;;;;;22.10;11.25;;;;;;;21.21;54.69;98955.77;125746;1092;102906;-71
2021/07/11 21:55:06;;;;;;;34.47;21.23;;;;;;;21.16;54.78;98966.31;125664;1091;103370;-70
2021/07/11 21:57:35;;;;;;;22.17;11.77;;;;;;;21.14;54.97;98957.55;125762;1091;103061;-74
2021/07/11 22:00:23;;;;;;;18.67;9.43;;;;;;;21.09;55.37;98949.96;125651;1093;103259;-71
2021/07/11 22:02:52;;;;;;;17.10;8.67;;;;;;;21.03;55.18;98942.58;125622;1093;103138;-72
2021/07/11 22:05:22;;;;;;;19.87;9.67;;;;;;;21.02;55.36;98940.07;125715;1093;103026;-72
2021/07/11 22:07:52;;;;;;;17.73;8.40;;;;;;;20.99;55.22;98941.26;125667;1093;103094;-72
2021/07/11 22:10:21;;;;;;;19.40;9.60;;;;;;;20.96;55.32;98941.66;125684;1093;103031;-71
2021/07/11 22:12:50;;;;;;;17.53;8.03;;;;;;;20.92;55.55;98932.22;125733;1093;103025;-71
2021/07/11 22:15:18;;;;;;;13.90;7.17;;;;;;;20.89;55.42;98933.41;125661;1093;103361;-70
2021/07/11 22:17:46;;;;;;;21.23;11.43;;;;;;;20.85;55.57;98934.79;125640;1093;102959;-74
2021/07/11 22:20:16;;;;;;;25.70;14.33;;;;;;;20.81;55.61;98933.47;125658;1094;103070;-71
2021/07/11 22:22:48;;;;;;;24.30;13.73;;;;;;;20.76;55.79;98925.88;125721;1092;102906;-72
2021/07/11 22:25:17;;;;;;;18.40;9.70;;;;;;;20.75;56.12;98928.78;125678;1093;102987;-71
2021/07/11 22:27:46;;;;;;;14.37;7.60;;;;;;;20.74;56.03;98937.91;125662;1093;103116;-73
2021/07/11 22:30:22;;;;;;;15.60;7.97;;;;;;;20.71;55.82;98935.56;125677;1093;103061;-72
2021/07/11 22:32:52;;;;;;;15.87;8.10;;;;;;;20.65;56.27;98926.30;125710;1093;103629;-74
2021/07/11 22:35:21;;;;;;;16.00;8.33;;;;;;;20.61;56.46;98919.58;125694;1093;103061;-74
2021/07/11 22:37:51;;;;;;;15.17;8.10;;;;;;;20.60;56.12;98918.75;125689;1093;102961;-76
2021/07/11 22:40:21;;;;;;;15.07;7.97;;;;;;;20.58;56.17;98923.48;125696;1093;103062;-70
2021/07/11 22:42:51;;;;;;;15.57;7.53;;;;;;;20.57;56.40;98912.88;125735;1093;103425;-71
2021/07/11 22:45:21;;;;;;;15.47;8.13;;;;;;;20.52;56.40;98908.85;125723;1093;103060;-73
2021/07/11 22:47:53;;;;;;;16.53;7.90;;;;;;;20.49;56.55;98905.66;125734;1092;102916;-71
2021/07/11 22:50:24;;;;;;;15.30;8.30;;;;;;;20.46;56.86;98906.87;125737;1092;103079;-71
2021/07/11 22:52:54;;;;;;;14.70;8.33;;;;;;;20.42;56.60;98904.69;125675;1093;103012;-72
2021/07/11 22:55:23;;;;;;;19.03;10.03;;;;;;;20.38;56.64;98896.94;125692;1092;102909;-71
2021/07/11 22:57:51;;;;;;;14.80;8.00;;;;;;;20.33;56.86;98896.66;125693;1092;102932;-75
2021/07/11 23:00:28;;;;;;;14.73;7.90;;;;;;;20.29;57.13;98902.58;125707;1093;103154;-74
2021/07/11 23:02:57;;;;;;;15.10;8.13;;;;;;;20.28;57.22;98893.66;125667;1093;102932;-72
2021/07/11 23:05:27;;;;;;;16.60;8.03;;;;;;;20.29;57.27;98903.44;125671;1093;103045;-71
2021/07/11 23:07:57;;;;;;;15.53;8.07;;;;;;;20.27;57.30;98910.88;125708;1093;102906;-72
2021/07/11 23:10:26;;;;;;;15.43;7.67;;;;;;;20.28;57.14;98919.80;125888;1093;102936;-72
2021/07/11 23:12:54;;;;;;;16.90;8.17;;;;;;;20.26;57.40;98916.44;125887;1093;102932;-72
2021/07/11 23:15:26;;;;;;;14.73;7.80;;;;;;;20.23;57.30;98913.08;125691;1093;102936;-71
2021/07/11 23:17:54;;;;;;;13.90;7.47;;;;;;;20.19;57.57;98906.34;125723;1093;103005;-72
2021/07/11 23:20:25;;;;;;;15.23;7.70;;;;;;;20.18;57.53;98911.94;125682;1093;102994;-71
2021/07/11 23:22:55;;;;;;;14.80;8.10;;;;;;;20.16;57.48;98913.98;125691;1092;103002;-71
2021/07/11 23:25:24;;;;;;;15.13;7.73;;;;;;;20.08;57.36;98906.77;125776;1092;102944;-71
2021/07/11 23:27:55;;;;;;;15.00;8.10;;;;;;;20.06;57.79;98911.50;125677;1093;102911;-71
2021/07/11 23:30:25;;;;;;;15.23;8.20;;;;;;;20.06;57.94;98916.91;125680;1092;103189;-72
2021/07/11 23:32:56;;;;;;;15.15;7.40;;;;;;;20.04;58.13;98922.46;125740;1092;102913;-71
2021/07/11 23:35:27;;;;;;;16.60;7.90;;;;;;;20.04;58.09;98910.84;125690;1093;102935;-72
2021/07/11 23:37:56;;;;;;;15.80;8.03;;;;;;;20.03;58.22;98918.08;125709;1093;102938;-73
2021/07/11 23:40:26;;;;;;;16.90;8.57;;;;;;;20.01;58.07;98916.59;125762;1093;102938;-72
2021/07/11 23:42:56;;;;;;;17.53;8.77;;;;;;;19.98;58.16;98912.37;125712;1091;102913;-72
2021/07/11 23:45:26;;;;;;;18.15;8.75;;;;;;;19.96;58.32;98910.88;125745;1093;103016;-73
2021/07/11 23:47:56;;;;;;;15.93;8.93;;;;;;;19.93;58.37;98904.81;125658;1093;103058;-72
2021/07/11 23:50:28;;;;;;;18.90;9.47;;;;;;;19.92;58.23;98910.40;125690;1093;102930;-73
2021/07/11 23:52:58;;;;;;;19.50;10.20;;;;;;;19.89;58.19;98906.17;125686;1093;102905;-73
2021/07/11 23:55:27;;;;;;;17.60;10.53;;;;;;;19.87;58.42;98915.45;125688;1092;102941;-72
2021/07/11 23:57:55;;;;;;;18.43;10.70;;;;;;;19.84;58.50;98911.23;125724;1093;103058;-72
